Terminal Aerodrome Forecast
Issued by NWS Spokane, WA

Home | Current Version | Previous Version | Text Only | Print | Product List | Glossary On
Versions: 1 2 3 4 5 6 7 8 9 10 11 12 13 14 15 16 17 18 19 20 21 22 23 24 25
000
FTUS46 KOTX 131608 AAC
TAFGEG
TAF AMD
KGEG 131608Z 1316/1412 VRB05KT P6SM BKN010 OVC030
     FM131900 01003KT P6SM BKN008
     FM132300 02004KT P6SM FEW008
     FM140800 02003KT 1SM BR BKN005=

USA.gov is the U.S. government's official web portal to all federal, state and local government web resources and services.